Time;durP1;ratioP1;P1;durP2;ratioP2;P2;SDS_P1;SDS_P2;PMS_P1;PMS_P2;Temp;Humidity;BMP_temperature;BMP_pressure;BME280_temperature;BME280_humidity;BME280_pressure;Samples;Min_cycle;Max_cycle;Signal;HPM_P1;HPM_P2
2023/12/15 00:00:18;;;;;;;151.82;77.85;;;5.70;99.90;;;;;;5008001;28;20060;-80
2023/12/15 00:02:45;;;;;;;113.90;70.85;;;5.80;99.90;;;;;;4986353;28;20132;-80
2023/12/15 00:05:11;;;;;;;132.30;76.38;;;5.70;99.90;;;;;;4991806;28;20373;-80
2023/12/15 00:07:36;;;;;;;114.15;68.80;;;5.80;99.90;;;;;;5011622;28;20048;-80
2023/12/15 00:10:03;;;;;;;128.63;78.00;;;5.80;99.90;;;;;;4991930;28;20495;-80
2023/12/15 00:12:28;;;;;;;123.60;75.20;;;5.80;99.90;;;;;;4991400;28;20041;-80
2023/12/15 00:14:54;;;;;;;142.38;81.07;;;5.80;99.90;;;;;;5023390;28;20025;-80
2023/12/15 00:17:20;;;;;;;153.93;85.18;;;5.80;99.90;;;;;;4992646;28;20029;-80
2023/12/15 00:19:45;;;;;;;156.82;86.50;;;5.80;99.90;;;;;;5011591;28;20041;-80
2023/12/15 00:22:11;;;;;;;150.13;87.97;;;5.90;99.90;;;;;;5016297;28;20159;-80
2023/12/15 00:24:36;;;;;;;166.80;90.93;;;5.90;99.90;;;;;;5017606;28;20071;-79
2023/12/15 00:27:02;;;;;;;120.38;82.45;;;5.90;99.90;;;;;;5035532;28;20380;-80
2023/12/15 00:29:28;;;;;;;155.60;87.63;;;5.90;99.90;;;;;;5028886;28;20076;-80
2023/12/15 00:31:53;;;;;;;160.45;91.25;;;5.90;99.90;;;;;;5007363;28;20038;-80
2023/12/15 00:34:19;;;;;;;167.70;92.20;;;5.90;99.90;;;;;;5040718;28;20041;-80
2023/12/15 00:36:44;;;;;;;103.28;76.30;;;5.90;99.90;;;;;;5026399;28;20076;-79
2023/12/15 00:39:10;;;;;;;127.38;84.43;;;6.00;99.90;;;;;;5000321;28;20037;-79
2023/12/15 00:41:35;;;;;;;163.55;91.13;;;6.00;99.90;;;;;;5016112;28;20052;-80
2023/12/15 00:44:03;;;;;;;155.30;91.72;;;5.90;99.90;;;;;;5016962;28;20042;-80
2023/12/15 00:46:29;;;;;;;161.52;90.68;;;6.00;99.90;;;;;;5008723;28;20495;-80
2023/12/15 00:48:54;;;;;;;143.13;88.03;;;6.00;99.90;;;;;;4988838;28;20042;-79
2023/12/15 00:51:20;;;;;;;169.13;93.45;;;6.00;99.90;;;;;;5023410;28;20124;-79
2023/12/15 00:53:45;;;;;;;160.10;92.22;;;6.00;99.90;;;;;;5016874;28;20039;-80
2023/12/15 00:56:11;;;;;;;169.70;96.63;;;6.00;99.90;;;;;;5026650;28;20404;-80
2023/12/15 00:58:37;;;;;;;130.13;86.95;;;6.00;99.90;;;;;;5025350;28;20120;-80
2023/12/15 01:01:02;;;;;;;136.05;86.82;;;6.00;99.90;;;;;;5031805;28;20045;-80
2023/12/15 01:03:30;;;;;;;193.40;98.93;;;6.00;99.90;;;;;;5026304;28;20065;-80
2023/12/15 01:05:56;;;;;;;184.60;100.80;;;6.00;99.90;;;;;;5033372;28;20045;-80
2023/12/15 01:08:22;;;;;;;130.02;88.00;;;6.00;99.90;;;;;;5017131;28;20045;-80
2023/12/15 01:10:47;;;;;;;149.77;92.28;;;6.10;99.90;;;;;;5032942;28;20048;-80
2023/12/15 01:13:13;;;;;;;143.63;91.13;;;6.10;99.90;;;;;;4995450;28;20038;-80
2023/12/15 01:15:39;;;;;;;129.02;87.40;;;6.10;99.90;;;;;;4980936;28;20034;-80
2023/12/15 01:18:05;;;;;;;147.30;91.18;;;6.10;99.90;;;;;;4997272;28;20389;-79
2023/12/15 01:20:30;;;;;;;158.55;92.47;;;6.10;99.90;;;;;;4980957;28;20038;-80
2023/12/15 01:22:56;;;;;;;141.65;90.40;;;6.10;99.90;;;;;;5003587;28;20036;-80
2023/12/15 01:25:22;;;;;;;170.23;94.05;;;6.10;99.90;;;;;;5016765;28;20037;-80
2023/12/15 01:27:47;;;;;;;119.43;81.40;;;6.10;99.90;;;;;;5003295;28;20037;-80
2023/12/15 01:30:13;;;;;;;108.70;76.40;;;6.10;99.90;;;;;;5015949;28;20041;-79
2023/12/15 01:32:38;;;;;;;175.23;95.55;;;6.10;99.90;;;;;;5014769;28;20117;-80
2023/12/15 01:35:05;;;;;;;129.73;85.45;;;6.10;99.90;;;;;;5014739;28;20037;-79
2023/12/15 01:37:30;;;;;;;167.02;92.55;;;6.10;99.90;;;;;;5012977;28;20044;-79
2023/12/15 01:39:56;;;;;;;110.50;77.57;;;6.10;99.90;;;;;;4992178;28;20033;-80
2023/12/15 01:42:22;;;;;;;175.45;90.78;;;6.10;99.90;;;;;;4993710;28;20038;-79
2023/12/15 01:44:47;;;;;;;170.32;91.80;;;6.10;99.90;;;;;;5009033;28;20033;-80
2023/12/15 01:47:17;;;;;;;147.93;84.88;;;6.10;99.90;;;;;;5017112;28;20049;-79
2023/12/15 01:49:43;;;;;;;215.50;100.68;;;6.10;99.90;;;;;;4990715;28;20038;-80
2023/12/15 01:52:09;;;;;;;195.88;93.85;;;6.10;99.90;;;;;;5015809;28;20042;-80
2023/12/15 01:54:34;;;;;;;166.52;91.85;;;6.10;99.90;;;;;;5015441;28;20557;-80
2023/12/15 01:57:00;;;;;;;139.05;81.38;;;6.10;99.90;;;;;;4993648;28;20034;-79
2023/12/15 01:59:26;;;;;;;120.88;79.00;;;6.10;99.90;;;;;;5011939;28;20049;-80
2023/12/15 02:01:51;;;;;;;183.18;92.30;;;6.10;99.90;;;;;;4989149;28;20049;-79
2023/12/15 02:04:17;;;;;;;176.73;90.30;;;6.10;99.90;;;;;;5021089;28;20071;-80
2023/12/15 02:06:42;;;;;;;175.18;90.30;;;6.10;99.90;;;;;;4992217;28;20472;-79
2023/12/15 02:09:08;;;;;;;169.30;89.20;;;6.10;99.90;;;;;;5002531;28;20113;-80
2023/12/15 02:11:33;;;;;;;175.32;89.40;;;6.10;99.90;;;;;;5001510;28;20042;-79
2023/12/15 02:13:59;;;;;;;233.80;99.97;;;6.10;99.90;;;;;;5020321;28;20041;-80
2023/12/15 02:16:24;;;;;;;163.73;88.40;;;6.10;99.90;;;;;;4989204;28;20037;-80
2023/12/15 02:18:50;;;;;;;235.77;96.65;;;6.10;99.90;;;;;;5008155;28;20034;-80
2023/12/15 02:21:15;;;;;;;197.88;93.07;;;6.10;99.90;;;;;;5010205;28;20084;-80
2023/12/15 02:23:41;;;;;;;163.25;88.25;;;6.10;99.90;;;;;;5004086;28;20049;-79
2023/12/15 02:26:07;;;;;;;172.05;88.22;;;6.20;99.90;;;;;;5012645;28;20041;-79
2023/12/15 02:28:32;;;;;;;229.15;98.22;;;6.20;99.90;;;;;;5001176;28;20065;-79
2023/12/15 02:30:58;;;;;;;177.23;88.90;;;6.20;99.90;;;;;;4987484;28;20046;-80
2023/12/15 02:33:23;;;;;;;217.35;94.85;;;6.10;99.90;;;;;;5016172;28;20116;-79
2023/12/15 02:35:50;;;;;;;187.70;89.70;;;6.10;99.90;;;;;;4997880;28;20048;-80
2023/12/15 02:38:18;;;;;;;193.90;90.25;;;6.20;99.90;;;;;;5014678;28;20551;-79
2023/12/15 02:40:44;;;;;;;205.10;90.68;;;6.10;99.90;;;;;;4990780;28;20076;-79
2023/12/15 02:43:10;;;;;;;210.52;91.57;;;6.20;99.90;;;;;;4989283;28;20034;-79
2023/12/15 02:45:37;;;;;;;189.90;85.45;;;6.10;99.90;;;;;;4985738;28;20492;-80
2023/12/15 02:48:03;;;;;;;296.08;99.90;;;6.10;99.90;;;;;;4993415;28;20033;-80
2023/12/15 02:50:28;;;;;;;262.33;93.55;;;6.10;99.90;;;;;;4994818;28;20030;-80
2023/12/15 02:52:54;;;;;;;239.98;91.35;;;6.10;99.90;;;;;;4996069;28;20034;-79
2023/12/15 02:55:19;;;;;;;227.27;90.40;;;6.00;99.90;;;;;;5016739;28;20120;-79
2023/12/15 02:57:45;;;;;;;215.45;87.60;;;6.00;99.90;;;;;;5010006;28;20029;-80
2023/12/15 03:00:12;;;;;;;252.80;90.88;;;6.00;99.90;;;;;;5006334;28;20041;-79
2023/12/15 03:02:39;;;;;;;273.25;93.28;;;5.90;99.90;;;;;;5022863;28;20084;-79
2023/12/15 03:05:05;;;;;;;276.48;95.50;;;5.90;99.90;;;;;;5014543;28;20491;-80
2023/12/15 03:07:31;;;;;;;248.23;92.18;;;5.90;99.90;;;;;;5014654;28;20050;-79
2023/12/15 03:09:57;;;;;;;283.70;97.50;;;5.90;99.90;;;;;;5014817;28;20074;-80
2023/12/15 03:12:22;;;;;;;338.83;105.93;;;6.00;99.90;;;;;;5026197;28;20077;-79
2023/12/15 03:14:48;;;;;;;337.48;105.43;;;6.00;99.90;;;;;;4997924;28;20037;-79
2023/12/15 03:17:16;;;;;;;331.70;104.10;;;6.00;99.90;;;;;;4998155;28;20042;-79
2023/12/15 03:19:42;;;;;;;359.50;104.97;;;6.10;99.90;;;;;;4998094;28;20037;-79
2023/12/15 03:22:07;;;;;;;293.27;98.90;;;6.10;99.90;;;;;;5014407;28;20124;-79
2023/12/15 03:24:33;;;;;;;267.88;99.15;;;6.10;99.90;;;;;;5010694;28;20460;-79
2023/12/15 03:26:58;;;;;;;294.52;100.57;;;6.10;99.90;;;;;;5005802;28;20045;-79
2023/12/15 03:29:24;;;;;;;334.25;105.47;;;6.10;99.90;;;;;;4997648;28;20037;-79
2023/12/15 03:31:49;;;;;;;411.77;109.80;;;6.10;99.90;;;;;;4997892;28;20045;-79
2023/12/15 03:34:15;;;;;;;340.08;101.97;;;6.20;99.90;;;;;;5013550;28;20037;-79
2023/12/15 03:36:41;;;;;;;334.48;103.80;;;6.10;99.90;;;;;;5014245;28;20128;-80
2023/12/15 03:39:07;;;;;;;375.67;105.47;;;6.20;99.90;;;;;;4997893;28;20052;-79
2023/12/15 03:41:33;;;;;;;272.70;100.97;;;6.10;99.90;;;;;;5014157;28;20047;-79
2023/12/15 03:43:59;;;;;;;429.48;109.78;;;6.20;99.90;;;;;;5005388;28;20407;-79
2023/12/15 03:46:25;;;;;;;334.52;100.57;;;6.20;99.90;;;;;;5026044;28;20050;-79
2023/12/15 03:48:50;;;;;;;353.23;104.18;;;6.20;99.90;;;;;;5010888;28;20045;-79
2023/12/15 03:51:16;;;;;;;300.00;99.75;;;6.20;99.90;;;;;;5012252;28;20038;-79
2023/12/15 03:53:41;;;;;;;282.95;97.68;;;6.20;99.90;;;;;;4995159;28;20037;-79
2023/12/15 03:56:08;;;;;;;362.00;104.22;;;6.20;99.90;;;;;;5016110;28;20029;-79
2023/12/15 03:58:33;;;;;;;415.30;107.97;;;6.20;99.90;;;;;;5014108;28;20057;-79
2023/12/15 04:00:59;;;;;;;351.73;101.40;;;6.10;99.90;;;;;;5027289;28;20076;-79
2023/12/15 04:03:24;;;;;;;309.17;99.85;;;6.10;99.90;;;;;;4992867;28;20049;-79
2023/12/15 04:05:50;;;;;;;303.48;100.97;;;6.10;99.90;;;;;;5025553;28;20044;-79
2023/12/15 04:08:16;;;;;;;338.50;104.45;;;6.10;99.90;;;;;;5005161;28;20088;-79
2023/12/15 04:10:41;;;;;;;331.33;103.20;;;6.10;99.90;;;;;;5012870;28;20098;-79
2023/12/15 04:13:07;;;;;;;367.20;106.40;;;6.10;99.90;;;;;;5005842;28;20026;-79
2023/12/15 04:15:32;;;;;;;403.77;111.43;;;6.20;99.90;;;;;;4997997;28;20395;-79
2023/12/15 04:18:03;;;;;;;392.80;106.72;;;6.10;99.90;;;;;;4997496;28;20041;-79
2023/12/15 04:20:28;;;;;;;380.75;105.18;;;6.20;99.90;;;;;;4992226;28;20040;-80
2023/12/15 04:22:54;;;;;;;298.60;97.22;;;6.20;99.90;;;;;;5026973;28;20403;-79
2023/12/15 04:25:19;;;;;;;362.27;102.88;;;6.10;99.90;;;;;;5011587;28;20072;-79
2023/12/15 04:27:45;;;;;;;371.08;103.72;;;6.10;99.90;;;;;;5026750;28;20033;-79
2023/12/15 04:30:11;;;;;;;277.02;93.78;;;6.00;99.90;;;;;;5006889;28;20506;-79
2023/12/15 04:32:37;;;;;;;356.55;100.18;;;6.00;99.90;;;;;;5010408;28;20037;-79
2023/12/15 04:35:03;;;;;;;300.40;97.95;;;5.90;99.90;;;;;;4991471;28;20034;-79
2023/12/15 04:37:28;;;;;;;390.70;108.00;;;5.90;99.90;;;;;;5003264;28;20091;-79
2023/12/15 04:39:54;;;;;;;411.58;108.22;;;5.90;99.90;;;;;;5030661;28;20115;-80
2023/12/15 04:42:19;;;;;;;427.20;109.18;;;5.90;99.90;;;;;;5031085;28;20033;-79
2023/12/15 04:44:45;;;;;;;384.38;103.40;;;5.90;99.90;;;;;;4999726;28;20128;-79
2023/12/15 04:47:10;;;;;;;380.75;107.40;;;5.90;99.90;;;;;;5025782;28;20057;-79
2023/12/15 04:49:37;;;;;;;328.58;101.97;;;5.90;99.90;;;;;;5003542;28;20046;-79
2023/12/15 04:52:03;;;;;;;444.30;109.05;;;5.90;99.90;;;;;;5019214;28;20034;-79
2023/12/15 04:54:29;;;;;;;394.63;105.25;;;5.90;99.90;;;;;;4990135;28;20045;-78
2023/12/15 04:56:54;;;;;;;411.45;108.38;;;5.90;99.90;;;;;;5016064;28;20516;-79
2023/12/15 04:59:20;;;;;;;428.40;109.25;;;5.90;99.90;;;;;;5019866;28;20064;-79
2023/12/15 05:01:45;;;;;;;472.95;111.75;;;5.90;99.90;;;;;;5002552;28;20044;-79
2023/12/15 05:04:11;;;;;;;367.27;103.40;;;5.90;99.90;;;;;;5019291;28;20090;-79
2023/12/15 05:06:37;;;;;;;431.58;111.47;;;5.90;99.90;;;;;;5017885;28;20068;-79
2023/12/15 05:09:08;;;;;;;438.40;108.10;;;5.90;99.90;;;;;;5016952;28;20124;-79
2023/12/15 05:11:35;;;;;;;471.10;110.80;;;5.80;99.90;;;;;;4999979;28;20519;-79
2023/12/15 05:14:01;;;;;;;335.45;97.47;;;5.80;99.90;;;;;;5002501;28;20121;-79
2023/12/15 05:16:30;;;;;;;466.55;108.68;;;5.70;99.90;;;;;;4997225;28;20113;-79
2023/12/15 05:18:55;;;;;;;376.13;101.05;;;5.70;99.90;;;;;;4999060;28;20040;-79
2023/12/15 05:21:21;;;;;;;496.48;109.40;;;5.60;99.90;;;;;;5011706;28;20049;-79
2023/12/15 05:23:46;;;;;;;460.80;104.40;;;5.60;99.90;;;;;;4995160;28;20046;-79
2023/12/15 05:26:12;;;;;;;342.15;95.25;;;5.60;99.90;;;;;;4980854;28;20046;-79
2023/12/15 05:28:38;;;;;;;355.83;102.32;;;5.50;99.90;;;;;;4996966;28;20064;-79
2023/12/15 05:31:03;;;;;;;418.17;105.35;;;5.50;99.90;;;;;;5009065;28;20049;-79
2023/12/15 05:33:29;;;;;;;327.80;96.45;;;5.50;99.90;;;;;;4999695;28;20399;-79
2023/12/15 05:35:54;;;;;;;490.52;107.88;;;5.50;99.90;;;;;;5016956;28;20392;-78
2023/12/15 05:38:20;;;;;;;343.95;97.63;;;5.50;99.90;;;;;;5016204;28;20029;-79
2023/12/15 05:40:46;;;;;;;460.77;106.65;;;5.50;99.90;;;;;;4999920;28;20069;-79
2023/12/15 05:43:11;;;;;;;458.75;100.75;;;5.40;99.90;;;;;;5015481;28;20049;-79
2023/12/15 05:45:37;;;;;;;497.23;104.82;;;5.40;99.90;;;;;;4997973;28;20033;-79
2023/12/15 05:48:03;;;;;;;462.33;104.57;;;5.30;99.90;;;;;;4997285;28;20069;-78
2023/12/15 05:50:28;;;;;;;449.80;104.15;;;5.30;99.90;;;;;;4984046;28;20106;-79
2023/12/15 05:52:54;;;;;;;366.05;96.78;;;5.20;99.90;;;;;;4989335;28;20765;-79
2023/12/15 05:55:20;;;;;;;349.45;97.50;;;5.20;99.90;;;;;;4999611;28;20033;-79
2023/12/15 05:57:45;;;;;;;431.50;104.60;;;5.20;99.90;;;;;;5015254;28;20029;-79
2023/12/15 06:00:11;;;;;;;425.65;103.93;;;5.20;99.90;;;;;;5011475;28;20037;-80
2023/12/15 06:02:37;;;;;;;368.05;97.90;;;5.20;99.90;;;;;;5012807;28;20037;-82
2023/12/15 06:05:02;;;;;;;334.98;97.35;;;5.20;99.90;;;;;;5036432;28;20464;-79
2023/12/15 06:07:31;;;;;;;460.42;103.65;;;5.20;99.90;;;;;;5017435;28;20040;-79
2023/12/15 06:09:56;;;;;;;403.42;101.28;;;5.20;99.90;;;;;;5000288;28;20521;-79
2023/12/15 06:12:22;;;;;;;403.17;101.35;;;5.20;99.90;;;;;;4991271;28;20034;-79
2023/12/15 06:14:47;;;;;;;369.48;98.57;;;5.20;99.90;;;;;;5008882;28;20033;-80
2023/12/15 06:17:13;;;;;;;419.00;103.07;;;5.20;99.90;;;;;;5002435;28;20033;-79
2023/12/15 06:19:39;;;;;;;457.75;104.82;;;5.20;99.90;;;;;;4995591;28;20064;-79
2023/12/15 06:22:05;;;;;;;365.30;97.43;;;5.10;99.90;;;;;;4995770;28;20331;-79
2023/12/15 06:24:31;;;;;;;488.65;106.45;;;5.10;99.90;;;;;;5030926;28;20120;-79
2023/12/15 06:26:56;;;;;;;445.42;104.10;;;5.00;99.90;;;;;;4995437;28;20446;-80
2023/12/15 06:29:22;;;;;;;452.63;105.15;;;5.00;99.90;;;;;;5019027;28;20045;-80
2023/12/15 06:31:49;;;;;;;407.48;102.30;;;5.00;99.90;;;;;;5000643;28;20069;-79
2023/12/15 06:34:14;;;;;;;434.15;102.80;;;4.90;99.90;;;;;;5006860;28;20037;-80
2023/12/15 06:36:40;;;;;;;423.75;100.47;;;4.90;99.90;;;;;;5016980;28;20120;-80
2023/12/15 06:39:06;;;;;;;500.92;109.55;;;4.90;99.90;;;;;;5004694;28;20436;-79
2023/12/15 06:41:32;;;;;;;487.70;104.07;;;4.80;99.90;;;;;;5018177;28;20043;-79
2023/12/15 06:43:58;;;;;;;465.50;105.35;;;4.80;99.90;;;;;;5010257;28;20037;-79
2023/12/15 06:46:24;;;;;;;456.23;105.65;;;4.80;99.90;;;;;;5006092;28;20091;-79
2023/12/15 06:48:49;;;;;;;522.42;109.35;;;4.70;99.90;;;;;;5014961;28;20128;-79
2023/12/15 06:51:15;;;;;;;436.33;104.88;;;4.70;99.90;;;;;;5006031;28;20045;-79
2023/12/15 06:53:41;;;;;;;495.95;106.13;;;4.70;99.90;;;;;;5013760;28;20049;-79
2023/12/15 06:56:07;;;;;;;377.92;99.97;;;4.70;99.90;;;;;;5001297;28;20503;-80
2023/12/15 06:58:32;;;;;;;534.45;115.70;;;4.70;99.90;;;;;;5012032;28;20038;-80
2023/12/15 07:00:58;;;;;;;431.13;105.28;;;4.80;99.90;;;;;;5016492;28;20044;-79
2023/12/15 07:03:23;;;;;;;435.83;108.07;;;4.80;99.90;;;;;;4998482;28;20571;-80
2023/12/15 07:05:49;;;;;;;450.52;107.15;;;4.80;99.90;;;;;;4998661;28;20139;-80
2023/12/15 07:08:14;;;;;;;542.15;117.38;;;4.80;99.90;;;;;;5029327;28;20057;-80
2023/12/15 07:10:40;;;;;;;431.73;107.78;;;4.90;99.90;;;;;;4995899;28;20079;-80
2023/12/15 07:13:06;;;;;;;418.23;105.65;;;5.00;99.90;;;;;;4999869;28;20119;-80
2023/12/15 07:15:32;;;;;;;497.17;112.32;;;5.00;99.90;;;;;;5006537;28;20100;-79
2023/12/15 07:17:57;;;;;;;442.70;109.90;;;5.10;99.90;;;;;;4982884;28;20025;-79
2023/12/15 07:20:25;;;;;;;430.98;108.03;;;5.10;99.90;;;;;;5014717;28;20534;-79
2023/12/15 07:22:51;;;;;;;464.50;112.55;;;5.10;99.90;;;;;;4998067;28;20041;-80
2023/12/15 07:25:17;;;;;;;450.55;108.65;;;5.20;99.90;;;;;;5014378;28;20055;-80
2023/12/15 07:27:43;;;;;;;403.60;106.60;;;5.20;99.90;;;;;;4995298;28;20045;-79
2023/12/15 07:30:09;;;;;;;366.33;102.63;;;5.30;99.90;;;;;;5023505;28;20534;-79
2023/12/15 07:32:34;;;;;;;379.33;105.80;;;5.30;99.90;;;;;;5008892;28;20042;-79
2023/12/15 07:35:00;;;;;;;330.98;100.40;;;5.40;99.90;;;;;;4996995;28;20041;-79
2023/12/15 07:37:25;;;;;;;333.55;100.88;;;5.40;99.90;;;;;;5021694;28;20041;-80
2023/12/15 07:39:51;;;;;;;364.58;103.10;;;5.50;99.90;;;;;;5004224;28;20496;-79
2023/12/15 07:42:17;;;;;;;482.20;111.85;;;5.50;99.90;;;;;;5023611;28;20555;-79
2023/12/15 07:44:42;;;;;;;360.70;102.20;;;5.50;99.90;;;;;;4983873;28;20033;-80
2023/12/15 07:47:08;;;;;;;412.05;105.57;;;5.50;99.90;;;;;;4988099;28;20076;-82
2023/12/15 07:49:34;;;;;;;377.00;103.97;;;5.60;99.90;;;;;;5003245;28;20041;-78
2023/12/15 07:52:00;;;;;;;353.58;103.50;;;5.60;99.90;;;;;;5020941;28;20041;-82
2023/12/15 07:54:26;;;;;;;342.85;98.40;;;5.60;99.90;;;;;;5009839;28;20036;-77
2023/12/15 07:56:52;;;;;;;400.80;106.40;;;5.60;99.90;;;;;;4997760;28;20127;-79
2023/12/15 07:59:17;;;;;;;392.40;103.30;;;5.70;99.90;;;;;;4997015;28;20034;-79
2023/12/15 08:01:50;;;;;;;369.90;101.80;;;5.70;99.90;;;;;;5015927;28;20033;-79
2023/12/15 08:04:16;;;;;;;;;;;5.70;99.90;;;;;;5017408;28;20060;-80
2023/12/15 08:06:41;;;;;;;360.23;95.55;;;5.70;99.90;;;;;;5014521;28;19917;-81
2023/12/15 08:09:07;;;;;;;367.45;95.88;;;5.70;99.90;;;;;;5017152;28;20037;-80
2023/12/15 08:11:32;;;;;;;353.83;94.72;;;5.60;99.90;;;;;;5013542;28;20034;-79
2023/12/15 08:13:58;;;;;;;299.17;88.93;;;5.60;99.90;;;;;;5008896;28;20030;-79
2023/12/15 08:16:23;;;;;;;274.30;82.90;;;5.60;99.90;;;;;;5009162;28;20120;-79
2023/12/15 08:18:49;;;;;;;365.17;94.32;;;5.60;99.90;;;;;;5002236;28;20041;-77
2023/12/15 08:21:14;;;;;;;271.48;86.25;;;5.60;99.90;;;;;;5001032;28;20048;-80
2023/12/15 08:23:40;;;;;;;343.30;91.10;;;5.50;99.90;;;;;;5010125;28;20136;-80
2023/12/15 08:26:06;;;;;;;326.52;87.63;;;5.60;99.90;;;;;;4994554;28;20034;-79
2023/12/15 08:28:31;;;;;;;379.40;89.10;;;5.50;99.90;;;;;;5022569;28;20041;-80
2023/12/15 08:30:58;;;;;;;339.45;85.45;;;5.50;99.90;;;;;;5030098;28;20041;-80
2023/12/15 08:33:24;;;;;;;267.65;81.63;;;5.50;99.90;;;;;;5026371;28;20065;-79
2023/12/15 08:35:50;;;;;;;328.85;85.80;;;5.40;99.90;;;;;;5013516;28;20084;-80
2023/12/15 08:38:15;;;;;;;235.70;77.25;;;5.40;99.90;;;;;;5012549;28;20061;-81
2023/12/15 08:40:41;;;;;;;256.83;79.38;;;5.40;99.90;;;;;;4990414;28;20042;-82
2023/12/15 08:43:06;;;;;;;336.40;88.32;;;5.40;99.90;;;;;;5012701;28;20033;-80
2023/12/15 08:45:32;;;;;;;327.60;87.50;;;5.40;99.90;;;;;;5027640;28;20116;-80
2023/12/15 08:47:57;;;;;;;268.00;83.15;;;5.50;99.90;;;;;;5034146;28;20048;-81
2023/12/15 08:50:23;;;;;;;251.82;81.45;;;5.50;99.90;;;;;;5004288;28;20041;-80
2023/12/15 08:52:49;;;;;;;304.90;86.95;;;5.60;99.90;;;;;;5017469;28;20056;-80
2023/12/15 08:55:15;;;;;;;325.88;89.15;;;5.70;99.90;;;;;;5001100;28;20042;-81
2023/12/15 08:57:40;;;;;;;269.88;81.20;;;5.70;99.90;;;;;;5029697;28;20037;-80
2023/12/15 09:00:06;;;;;;;264.85;81.40;;;5.80;99.90;;;;;;5033806;28;20045;-82
2023/12/15 09:02:33;;;;;;;270.50;82.50;;;5.90;99.90;;;;;;5034112;28;20477;-82
2023/12/15 09:05:00;;;;;;;250.35;80.10;;;6.00;99.90;;;;;;5022704;28;20446;-81
2023/12/15 09:07:26;;;;;;;214.18;77.65;;;6.10;99.90;;;;;;5034043;28;20056;-80
2023/12/15 09:09:51;;;;;;;278.42;80.60;;;6.20;99.90;;;;;;5033707;28;20034;-80
2023/12/15 09:12:17;;;;;;;220.70;75.28;;;6.20;99.90;;;;;;5025726;28;20450;-81
2023/12/15 09:14:42;;;;;;;208.25;73.20;;;6.30;99.90;;;;;;5010038;28;20030;-80
2023/12/15 09:17:12;;;;;;;248.25;75.95;;;6.30;99.90;;;;;;5033525;28;20492;-80
2023/12/15 09:19:40;;;;;;;199.68;69.00;;;6.40;99.90;;;;;;5017252;28;20525;-80
2023/12/15 09:22:06;;;;;;;251.35;74.32;;;6.40;99.90;;;;;;5017168;28;20041;-80
2023/12/15 09:24:33;;;;;;;186.43;66.50;;;6.50;99.90;;;;;;5011528;28;20044;-81
2023/12/15 09:26:59;;;;;;;233.85;72.78;;;6.60;99.90;;;;;;5017284;28;20105;-81
2023/12/15 09:29:25;;;;;;;222.45;69.18;;;6.60;99.90;;;;;;5016977;28;20045;-81
2023/12/15 09:31:50;;;;;;;201.32;66.43;;;6.70;99.90;;;;;;5016254;28;20049;-80
2023/12/15 09:34:17;;;;;;;149.07;59.85;;;6.70;99.90;;;;;;5010543;28;20040;-80
2023/12/15 09:36:43;;;;;;;203.15;65.30;;;6.80;99.90;;;;;;5033194;28;20037;-80
2023/12/15 09:39:08;;;;;;;169.55;60.45;;;6.90;99.90;;;;;;5022120;28;20040;-80
2023/12/15 09:41:35;;;;;;;195.18;60.72;;;6.90;99.90;;;;;;5032944;28;20041;-80
2023/12/15 09:44:01;;;;;;;166.40;57.42;;;7.00;99.90;;;;;;5016431;28;20120;-80
2023/12/15 09:46:27;;;;;;;133.13;50.40;;;7.10;99.90;;;;;;5032824;28;20060;-80
2023/12/15 09:48:53;;;;;;;145.32;54.22;;;7.10;99.90;;;;;;5015673;28;20037;-80
2023/12/15 09:51:23;;;;;;;128.05;50.13;;;7.20;99.90;;;;;;5016640;28;20435;-80
2023/12/15 09:53:50;;;;;;;157.43;53.05;;;7.20;99.90;;;;;;5005879;28;20100;-80
2023/12/15 09:56:16;;;;;;;110.45;45.58;;;7.30;99.90;;;;;;5016218;28;20479;-81
2023/12/15 09:58:42;;;;;;;122.75;48.42;;;7.30;99.90;;;;;;5032865;28;20041;-81
2023/12/15 10:01:11;;;;;;;132.82;52.08;;;7.40;99.90;;;;;;5032017;28;20033;-81
2023/12/15 10:03:38;;;;;;;99.63;42.17;;;7.50;99.90;;;;;;5013258;28;20072;-80
2023/12/15 10:06:04;;;;;;;144.68;51.78;;;7.50;99.90;;;;;;5016282;28;20045;-80
2023/12/15 10:08:44;;;;;;;110.15;44.70;;;7.60;99.90;;;;;;5013741;28;20104;-81
2023/12/15 10:11:11;;;;;;;102.78;41.70;;;7.70;99.90;;;;;;5026094;28;20403;-82
2023/12/15 10:13:40;;;;;;;125.57;46.45;;;7.70;99.90;;;;;;5015911;28;20045;-81
2023/12/15 10:16:06;;;;;;;132.13;47.17;;;7.80;99.90;;;;;;4997025;28;20121;-82
2023/12/15 10:18:31;;;;;;;135.55;46.35;;;7.80;99.90;;;;;;5021785;28;20041;-79
2023/12/15 10:20:58;;;;;;;110.22;42.47;;;7.90;99.90;;;;;;4984043;28;20042;-79
2023/12/15 10:23:28;;;;;;;116.28;42.65;;;7.90;99.90;;;;;;5013372;28;20120;-80
2023/12/15 10:25:55;;;;;;;119.50;41.70;;;8.00;99.90;;;;;;5012884;28;20095;-80
2023/12/15 10:28:21;;;;;;;81.38;33.67;;;8.00;99.90;;;;;;5027454;28;20045;-79
2023/12/15 10:30:49;;;;;;;98.88;35.55;;;8.10;99.90;;;;;;5030064;28;20033;-81
2023/12/15 10:33:17;;;;;;;110.63;36.10;;;8.10;99.90;;;;;;5005829;28;20610;-80
2023/12/15 10:35:47;;;;;;;89.93;32.95;;;8.10;99.90;;;;;;4998189;28;20034;-79
2023/12/15 10:38:14;;;;;;;83.53;30.98;;;8.20;99.90;;;;;;5001560;28;20092;-80
2023/12/15 10:40:41;;;;;;;79.30;27.35;;;8.20;99.90;;;;;;5029145;28;20025;-80
2023/12/15 10:43:08;;;;;;;92.95;32.30;;;8.20;99.90;;;;;;5028815;28;20506;-79
2023/12/15 10:45:35;;;;;;;75.30;28.48;;;8.20;99.90;;;;;;5014536;28;20080;-80
2023/12/15 10:48:01;;;;;;;75.20;26.25;;;8.30;99.90;;;;;;5015584;28;20037;-80
2023/12/15 10:50:28;;;;;;;92.78;28.35;;;8.30;99.90;;;;;;5017264;28;20029;-79
2023/12/15 10:52:55;;;;;;;81.05;27.08;;;8.20;99.90;;;;;;5031434;28;20037;-80
2023/12/15 10:55:23;;;;;;;57.42;20.38;;;8.30;99.90;;;;;;5026864;28;20120;-80
2023/12/15 10:57:49;;;;;;;75.85;22.77;;;8.30;99.90;;;;;;4998809;28;20534;-80
2023/12/15 11:00:17;;;;;;;64.97;20.67;;;8.30;99.90;;;;;;5031516;28;20069;-80
2023/12/15 11:02:47;;;;;;;58.15;18.80;;;8.30;99.90;;;;;;5030106;28;20045;-80
2023/12/15 11:05:15;;;;;;;63.95;19.40;;;8.30;99.90;;;;;;5030672;28;20128;-80
2023/12/15 11:07:41;;;;;;;43.33;15.32;;;8.40;99.90;;;;;;5014871;28;20053;-80
2023/12/15 11:10:09;;;;;;;65.95;19.13;;;8.40;99.90;;;;;;5000361;28;20037;-80
2023/12/15 11:12:39;;;;;;;53.75;15.98;;;8.40;99.90;;;;;;5031368;28;20041;-80
2023/12/15 11:15:18;;;;;;;54.17;15.00;;;8.50;99.90;;;;;;5014890;28;20041;-80
2023/12/15 11:17:47;;;;;;;60.72;16.88;;;8.50;99.90;;;;;;5016762;28;20562;-80
2023/12/15 11:20:25;;;;;;;45.00;13.35;;;8.50;99.90;;;;;;5015057;28;20124;-80
2023/12/15 11:22:57;;;;;;;53.20;15.13;;;8.60;99.90;;;;;;5014769;28;20561;-80
2023/12/15 11:25:57;;;;;;;56.85;14.93;;;8.60;99.90;;;;;;5014816;28;20041;-80
2023/12/15 11:28:22;;;;;;;48.33;14.10;;;8.60;99.90;;;;;;5031506;28;20581;-79
2023/12/15 11:30:52;;;;;;;37.45;11.82;;;8.60;99.90;;;;;;5015078;28;20073;-80
2023/12/15 11:33:22;;;;;;;43.92;12.10;;;8.60;99.90;;;;;;5020954;28;20085;-80
2023/12/15 11:36:04;;;;;;;56.72;14.85;;;8.70;99.90;;;;;;5014926;28;20041;-80
2023/12/15 11:38:30;;;;;;;43.08;11.98;;;8.70;99.90;;;;;;5014399;28;20042;-80
2023/12/15 11:40:56;;;;;;;55.47;14.35;;;8.70;99.90;;;;;;5022591;28;20175;-80
2023/12/15 11:43:25;;;;;;;42.00;11.90;;;8.70;99.90;;;;;;5031335;28;20045;-80
2023/12/15 11:45:55;;;;;;;39.75;11.55;;;8.80;99.90;;;;;;5031190;28;20045;-80
2023/12/15 11:48:24;;;;;;;45.25;10.95;;;8.80;99.90;;;;;;5026461;28;20609;-80
2023/12/15 11:50:50;;;;;;;42.10;11.02;;;8.90;99.90;;;;;;4988433;28;20037;-80
2023/12/15 11:53:17;;;;;;;44.50;12.13;;;8.90;99.90;;;;;;4995142;28;20503;-79
2023/12/15 11:55:46;;;;;;;51.15;12.48;;;8.90;99.90;;;;;;5026911;28;20554;-82
2023/12/15 11:58:14;;;;;;;41.97;11.18;;;8.90;99.90;;;;;;5013395;28;20042;-80
2023/12/15 12:00:40;;;;;;;50.47;12.50;;;9.00;99.90;;;;;;4969782;23;20082;-75
2023/12/15 12:03:09;;;;;;;47.85;12.43;;;9.00;99.90;;;;;;4915302;29;20397;-76
2023/12/15 12:05:35;;;;;;;54.35;11.88;;;9.00;99.90;;;;;;4936416;29;20109;-76
2023/12/15 12:08:00;;;;;;;53.15;12.98;;;9.10;99.90;;;;;;4952378;29;20074;-75
2023/12/15 12:10:34;;;;;;;47.55;11.70;;;9.20;99.90;;;;;;4936374;29;20516;-75
2023/12/15 12:13:00;;;;;;;38.65;10.13;;;9.20;99.90;;;;;;4919802;29;20035;-75
2023/12/15 12:15:26;;;;;;;51.00;12.48;;;9.30;99.90;;;;;;4924148;28;20040;-75
2023/12/15 12:17:52;;;;;;;40.90;11.68;;;9.30;99.90;;;;;;4924531;28;20061;-75
2023/12/15 12:20:19;;;;;;;43.00;12.23;;;9.40;99.90;;;;;;4924275;29;20533;-75